sensor_id;sensor_type;location;lat;lon;timestamp;P1;durP1;ratioP1;P2;durP2;ratioP2
57842;SDS011;43673;51.058;3.734;2022-10-16T00:02:12;2.13;;;1.40;;
57842;SDS011;43673;51.058;3.734;2022-10-16T00:04:38;5.60;;;1.65;;
57842;SDS011;43673;51.058;3.734;2022-10-16T00:07:04;2.38;;;1.77;;
57842;SDS011;43673;51.058;3.734;2022-10-16T00:09:29;1.90;;;1.50;;
57842;SDS011;43673;51.058;3.734;2022-10-16T00:11:55;1.77;;;1.60;;
57842;SDS011;43673;51.058;3.734;2022-10-16T00:14:21;2.03;;;1.52;;
57842;SDS011;43673;51.058;3.734;2022-10-16T00:16:46;4.00;;;2.22;;
57842;SDS011;43673;51.058;3.734;2022-10-16T00:19:12;1.60;;;1.30;;
57842;SDS011;43673;51.058;3.734;2022-10-16T00:21:38;1.52;;;1.38;;
57842;SDS011;43673;51.058;3.734;2022-10-16T00:24:05;2.53;;;1.42;;
57842;SDS011;43673;51.058;3.734;2022-10-16T00:26:33;2.20;;;1.80;;
57842;SDS011;43673;51.058;3.734;2022-10-16T00:29:01;3.45;;;1.52;;
57842;SDS011;43673;51.058;3.734;2022-10-16T00:31:27;4.25;;;2.03;;
57842;SDS011;43673;51.058;3.734;2022-10-16T00:33:53;2.53;;;1.90;;
57842;SDS011;43673;51.058;3.734;2022-10-16T00:36:21;8.98;;;2.30;;
57842;SDS011;43673;51.058;3.734;2022-10-16T00:38:50;4.15;;;1.50;;
57842;SDS011;43673;51.058;3.734;2022-10-16T00:43:54;3.38;;;1.75;;
57842;SDS011;43673;51.058;3.734;2022-10-16T00:46:55;3.25;;;1.92;;
57842;SDS011;43673;51.058;3.734;2022-10-16T00:49:15;2.45;;;1.75;;
57842;SDS011;43673;51.058;3.734;2022-10-16T00:51:46;1.80;;;1.70;;
57842;SDS011;43673;51.058;3.734;2022-10-16T00:54:26;3.63;;;1.67;;
57842;SDS011;43673;51.058;3.734;2022-10-16T00:56:54;6.47;;;2.03;;
57842;SDS011;43673;51.058;3.734;2022-10-16T01:05:12;2.47;;;1.77;;
57842;SDS011;43673;51.058;3.734;2022-10-16T01:34:53;2.93;;;1.53;;
57842;SDS011;43673;51.058;3.734;2022-10-16T01:53:52;1.52;;;1.40;;
57842;SDS011;43673;51.058;3.734;2022-10-16T02:09:34;2.85;;;1.95;;
57842;SDS011;43673;51.058;3.734;2022-10-16T02:14:37;4.15;;;1.90;;
57842;SDS011;43673;51.058;3.734;2022-10-16T02:17:10;3.65;;;1.85;;
57842;SDS011;43673;51.058;3.734;2022-10-16T02:19:37;2.65;;;1.70;;
57842;SDS011;43673;51.058;3.734;2022-10-16T02:33:05;2.40;;;1.80;;
57842;SDS011;43673;51.058;3.734;2022-10-16T02:41:07;5.32;;;1.88;;
57842;SDS011;43673;51.058;3.734;2022-10-16T02:46:09;4.13;;;2.50;;
57842;SDS011;43673;51.058;3.734;2022-10-16T02:51:17;1.98;;;1.77;;
57842;SDS011;43673;51.058;3.734;2022-10-16T02:53:44;3.15;;;1.75;;
57842;SDS011;43673;51.058;3.734;2022-10-16T02:59:32;5.43;;;2.05;;
57842;SDS011;43673;51.058;3.734;2022-10-16T03:01:58;6.30;;;2.17;;
57842;SDS011;43673;51.058;3.734;2022-10-16T03:04:23;5.97;;;2.00;;
57842;SDS011;43673;51.058;3.734;2022-10-16T03:06:49;2.88;;;1.85;;
57842;SDS011;43673;51.058;3.734;2022-10-16T03:09:15;2.83;;;2.30;;
57842;SDS011;43673;51.058;3.734;2022-10-16T03:36:10;7.18;;;2.70;;
57842;SDS011;43673;51.058;3.734;2022-10-16T04:04:40;3.95;;;2.13;;
57842;SDS011;43673;51.058;3.734;2022-10-16T04:12:49;2.78;;;2.40;;
57842;SDS011;43673;51.058;3.734;2022-10-16T04:39:58;2.25;;;2.00;;
57842;SDS011;43673;51.058;3.734;2022-10-16T04:45:47;6.82;;;2.35;;
57842;SDS011;43673;51.058;3.734;2022-10-16T04:48:15;3.33;;;2.13;;
57842;SDS011;43673;51.058;3.734;2022-10-16T04:50:41;5.75;;;2.40;;
57842;SDS011;43673;51.058;3.734;2022-10-16T04:53:07;4.45;;;1.85;;
57842;SDS011;43673;51.058;3.734;2022-10-16T04:55:32;4.50;;;2.05;;
57842;SDS011;43673;51.058;3.734;2022-10-16T04:57:58;3.78;;;2.60;;
57842;SDS011;43673;51.058;3.734;2022-10-16T05:00:40;4.55;;;2.35;;
57842;SDS011;43673;51.058;3.734;2022-10-16T05:08:17;5.38;;;3.17;;
57842;SDS011;43673;51.058;3.734;2022-10-16T05:10:43;4.72;;;2.53;;
57842;SDS011;43673;51.058;3.734;2022-10-16T05:29:05;4.72;;;2.55;;
57842;SDS011;43673;51.058;3.734;2022-10-16T05:34:21;7.22;;;2.60;;
57842;SDS011;43673;51.058;3.734;2022-10-16T05:40:02;5.00;;;2.72;;
57842;SDS011;43673;51.058;3.734;2022-10-16T05:42:30;4.38;;;2.47;;
57842;SDS011;43673;51.058;3.734;2022-10-16T05:44:55;7.63;;;2.55;;
57842;SDS011;43673;51.058;3.734;2022-10-16T05:47:21;6.13;;;2.10;;
57842;SDS011;43673;51.058;3.734;2022-10-16T05:49:47;3.35;;;2.70;;
57842;SDS011;43673;51.058;3.734;2022-10-16T05:52:13;2.88;;;2.20;;
57842;SDS011;43673;51.058;3.734;2022-10-16T05:54:38;7.15;;;2.65;;
57842;SDS011;43673;51.058;3.734;2022-10-16T05:57:04;10.38;;;2.53;;
57842;SDS011;43673;51.058;3.734;2022-10-16T05:59:31;5.78;;;2.42;;
57842;SDS011;43673;51.058;3.734;2022-10-16T06:02:18;5.43;;;2.20;;
57842;SDS011;43673;51.058;3.734;2022-10-16T06:18:03;3.65;;;2.67;;
57842;SDS011;43673;51.058;3.734;2022-10-16T06:25:40;6.28;;;2.85;;
57842;SDS011;43673;51.058;3.734;2022-10-16T06:28:06;4.57;;;2.60;;
57842;SDS011;43673;51.058;3.734;2022-10-16T06:33:07;4.47;;;2.72;;
57842;SDS011;43673;51.058;3.734;2022-10-16T06:35:33;5.57;;;2.40;;
57842;SDS011;43673;51.058;3.734;2022-10-16T06:37:58;6.18;;;2.55;;
57842;SDS011;43673;51.058;3.734;2022-10-16T06:40:24;8.35;;;2.95;;
57842;SDS011;43673;51.058;3.734;2022-10-16T06:42:50;6.53;;;3.38;;
57842;SDS011;43673;51.058;3.734;2022-10-16T06:45:17;4.15;;;2.60;;
57842;SDS011;43673;51.058;3.734;2022-10-16T06:47:42;5.50;;;3.10;;
57842;SDS011;43673;51.058;3.734;2022-10-16T06:50:08;3.90;;;2.45;;
57842;SDS011;43673;51.058;3.734;2022-10-16T06:52:34;4.45;;;2.67;;
57842;SDS011;43673;51.058;3.734;2022-10-16T06:54:59;6.78;;;2.92;;
57842;SDS011;43673;51.058;3.734;2022-10-16T06:57:25;5.32;;;2.40;;
57842;SDS011;43673;51.058;3.734;2022-10-16T06:59:51;4.57;;;2.60;;
57842;SDS011;43673;51.058;3.734;2022-10-16T07:02:17;5.75;;;3.67;;
57842;SDS011;43673;51.058;3.734;2022-10-16T07:04:43;4.10;;;2.42;;
57842;SDS011;43673;51.058;3.734;2022-10-16T07:07:08;4.63;;;2.10;;
57842;SDS011;43673;51.058;3.734;2022-10-16T07:09:34;4.10;;;2.90;;
57842;SDS011;43673;51.058;3.734;2022-10-16T07:12:00;7.05;;;2.55;;
57842;SDS011;43673;51.058;3.734;2022-10-16T07:17:05;5.32;;;2.78;;
57842;SDS011;43673;51.058;3.734;2022-10-16T07:19:31;2.83;;;2.30;;
57842;SDS011;43673;51.058;3.734;2022-10-16T07:21:57;8.82;;;3.17;;
57842;SDS011;43673;51.058;3.734;2022-10-16T07:24:26;3.42;;;2.70;;
57842;SDS011;43673;51.058;3.734;2022-10-16T07:30:26;3.97;;;2.05;;
57842;SDS011;43673;51.058;3.734;2022-10-16T07:32:51;7.20;;;2.47;;
57842;SDS011;43673;51.058;3.734;2022-10-16T07:35:17;6.50;;;2.10;;
57842;SDS011;43673;51.058;3.734;2022-10-16T07:38:05;3.83;;;2.63;;
57842;SDS011;43673;51.058;3.734;2022-10-16T07:40:31;3.35;;;2.42;;
57842;SDS011;43673;51.058;3.734;2022-10-16T07:42:57;5.35;;;2.25;;
57842;SDS011;43673;51.058;3.734;2022-10-16T07:45:22;8.60;;;2.70;;
57842;SDS011;43673;51.058;3.734;2022-10-16T07:47:48;6.70;;;2.65;;
57842;SDS011;43673;51.058;3.734;2022-10-16T07:50:14;3.00;;;2.20;;
57842;SDS011;43673;51.058;3.734;2022-10-16T07:52:39;4.60;;;2.30;;
57842;SDS011;43673;51.058;3.734;2022-10-16T07:55:05;5.85;;;2.00;;
57842;SDS011;43673;51.058;3.734;2022-10-16T07:57:31;4.82;;;2.50;;
57842;SDS011;43673;51.058;3.734;2022-10-16T07:59:57;5.47;;;2.15;;
57842;SDS011;43673;51.058;3.734;2022-10-16T08:02:22;2.95;;;1.88;;
57842;SDS011;43673;51.058;3.734;2022-10-16T08:04:48;3.10;;;2.05;;
57842;SDS011;43673;51.058;3.734;2022-10-16T08:07:15;5.57;;;2.70;;
57842;SDS011;43673;51.058;3.734;2022-10-16T08:09:40;2.97;;;1.77;;
57842;SDS011;43673;51.058;3.734;2022-10-16T08:12:07;3.60;;;2.15;;
57842;SDS011;43673;51.058;3.734;2022-10-16T08:14:32;5.60;;;2.13;;
57842;SDS011;43673;51.058;3.734;2022-10-16T08:16:58;2.35;;;2.15;;
57842;SDS011;43673;51.058;3.734;2022-10-16T08:19:24;5.35;;;2.15;;
57842;SDS011;43673;51.058;3.734;2022-10-16T08:21:49;5.72;;;2.22;;
57842;SDS011;43673;51.058;3.734;2022-10-16T08:24:15;5.20;;;1.70;;
57842;SDS011;43673;51.058;3.734;2022-10-16T08:26:41;4.88;;;2.00;;
57842;SDS011;43673;51.058;3.734;2022-10-16T08:29:06;5.35;;;2.78;;
57842;SDS011;43673;51.058;3.734;2022-10-16T08:31:32;3.60;;;1.70;;
57842;SDS011;43673;51.058;3.734;2022-10-16T08:33:57;8.90;;;2.70;;
57842;SDS011;43673;51.058;3.734;2022-10-16T08:36:23;7.57;;;2.30;;
57842;SDS011;43673;51.058;3.734;2022-10-16T08:38:49;6.03;;;3.15;;
57842;SDS011;43673;51.058;3.734;2022-10-16T08:41:20;6.88;;;3.03;;
57842;SDS011;43673;51.058;3.734;2022-10-16T08:49:08;7.18;;;2.55;;
57842;SDS011;43673;51.058;3.734;2022-10-16T08:51:38;3.83;;;2.08;;
57842;SDS011;43673;51.058;3.734;2022-10-16T08:54:18;3.20;;;2.13;;
57842;SDS011;43673;51.058;3.734;2022-10-16T08:56:54;5.15;;;2.85;;
57842;SDS011;43673;51.058;3.734;2022-10-16T08:59:26;6.10;;;2.10;;
57842;SDS011;43673;51.058;3.734;2022-10-16T09:01:52;5.55;;;3.25;;
57842;SDS011;43673;51.058;3.734;2022-10-16T09:15:32;7.00;;;2.47;;
57842;SDS011;43673;51.058;3.734;2022-10-16T09:23:33;6.47;;;2.72;;
57842;SDS011;43673;51.058;3.734;2022-10-16T09:26:08;7.47;;;2.83;;
57842;SDS011;43673;51.058;3.734;2022-10-16T09:28:44;7.60;;;2.40;;
57842;SDS011;43673;51.058;3.734;2022-10-16T09:31:18;6.65;;;2.38;;
57842;SDS011;43673;51.058;3.734;2022-10-16T09:33:48;3.97;;;2.33;;
57842;SDS011;43673;51.058;3.734;2022-10-16T09:36:36;6.55;;;2.67;;
57842;SDS011;43673;51.058;3.734;2022-10-16T09:39:07;6.85;;;2.47;;
57842;SDS011;43673;51.058;3.734;2022-10-16T09:41:35;4.10;;;2.00;;
57842;SDS011;43673;51.058;3.734;2022-10-16T09:44:16;7.88;;;2.30;;
57842;SDS011;43673;51.058;3.734;2022-10-16T09:47:00;8.57;;;2.50;;
57842;SDS011;43673;51.058;3.734;2022-10-16T09:49:57;4.05;;;2.25;;
57842;SDS011;43673;51.058;3.734;2022-10-16T09:52:30;5.63;;;2.70;;
57842;SDS011;43673;51.058;3.734;2022-10-16T09:55:19;8.77;;;3.03;;
57842;SDS011;43673;51.058;3.734;2022-10-16T09:57:50;6.40;;;2.55;;
57842;SDS011;43673;51.058;3.734;2022-10-16T10:00:23;11.30;;;3.30;;
57842;SDS011;43673;51.058;3.734;2022-10-16T10:03:10;10.35;;;2.72;;
57842;SDS011;43673;51.058;3.734;2022-10-16T10:05:37;3.83;;;2.35;;
57842;SDS011;43673;51.058;3.734;2022-10-16T10:08:05;7.68;;;2.25;;
57842;SDS011;43673;51.058;3.734;2022-10-16T10:10:33;10.75;;;2.95;;
57842;SDS011;43673;51.058;3.734;2022-10-16T10:13:25;7.75;;;4.07;;
57842;SDS011;43673;51.058;3.734;2022-10-16T10:15:53;7.45;;;2.30;;
57842;SDS011;43673;51.058;3.734;2022-10-16T10:18:20;7.20;;;2.95;;
57842;SDS011;43673;51.058;3.734;2022-10-16T10:20:59;4.55;;;2.65;;
57842;SDS011;43673;51.058;3.734;2022-10-16T10:23:27;5.72;;;2.33;;
57842;SDS011;43673;51.058;3.734;2022-10-16T11:00:00;5.90;;;2.42;;
57842;SDS011;43673;51.058;3.734;2022-10-16T11:05:38;8.15;;;2.65;;
57842;SDS011;43673;51.058;3.734;2022-10-16T11:08:13;8.35;;;2.67;;
57842;SDS011;43673;51.058;3.734;2022-10-16T11:10:54;9.32;;;2.67;;
57842;SDS011;43673;51.058;3.734;2022-10-16T11:16:21;8.05;;;2.60;;
57842;SDS011;43673;51.058;3.734;2022-10-16T11:18:59;10.18;;;2.90;;
57842;SDS011;43673;51.058;3.734;2022-10-16T11:21:29;7.53;;;3.30;;
57842;SDS011;43673;51.058;3.734;2022-10-16T11:24:09;9.63;;;3.28;;
57842;SDS011;43673;51.058;3.734;2022-10-16T11:26:47;9.60;;;2.55;;
57842;SDS011;43673;51.058;3.734;2022-10-16T11:29:25;5.78;;;2.42;;
57842;SDS011;43673;51.058;3.734;2022-10-16T11:31:55;9.85;;;3.00;;
57842;SDS011;43673;51.058;3.734;2022-10-16T11:34:38;9.38;;;2.20;;
57842;SDS011;43673;51.058;3.734;2022-10-16T11:37:14;7.95;;;2.63;;
57842;SDS011;43673;51.058;3.734;2022-10-16T11:39:45;8.90;;;2.97;;
57842;SDS011;43673;51.058;3.734;2022-10-16T11:42:19;5.35;;;2.42;;
57842;SDS011;43673;51.058;3.734;2022-10-16T11:47:48;3.83;;;2.53;;
57842;SDS011;43673;51.058;3.734;2022-10-16T11:50:34;6.50;;;2.55;;
57842;SDS011;43673;51.058;3.734;2022-10-16T11:53:23;6.53;;;2.15;;
57842;SDS011;43673;51.058;3.734;2022-10-16T11:55:59;11.10;;;2.67;;
57842;SDS011;43673;51.058;3.734;2022-10-16T11:58:30;9.10;;;2.88;;
57842;SDS011;43673;51.058;3.734;2022-10-16T12:03:59;8.57;;;2.72;;
57842;SDS011;43673;51.058;3.734;2022-10-16T12:06:49;10.90;;;2.20;;
57842;SDS011;43673;51.058;3.734;2022-10-16T12:09:20;7.57;;;2.72;;
57842;SDS011;43673;51.058;3.734;2022-10-16T12:11:47;4.28;;;2.45;;
57842;SDS011;43673;51.058;3.734;2022-10-16T12:16:39;10.50;;;2.20;;
57842;SDS011;43673;51.058;3.734;2022-10-16T12:19:23;13.40;;;3.22;;
57842;SDS011;43673;51.058;3.734;2022-10-16T12:21:52;8.77;;;3.20;;
57842;SDS011;43673;51.058;3.734;2022-10-16T12:24:23;7.00;;;2.15;;
57842;SDS011;43673;51.058;3.734;2022-10-16T12:27:04;6.35;;;1.95;;
57842;SDS011;43673;51.058;3.734;2022-10-16T12:29:41;6.45;;;2.03;;
57842;SDS011;43673;51.058;3.734;2022-10-16T12:35:16;6.95;;;2.03;;
57842;SDS011;43673;51.058;3.734;2022-10-16T12:37:45;6.13;;;1.80;;
57842;SDS011;43673;51.058;3.734;2022-10-16T12:42:48;6.22;;;1.88;;
57842;SDS011;43673;51.058;3.734;2022-10-16T12:45:32;7.53;;;2.10;;
57842;SDS011;43673;51.058;3.734;2022-10-16T12:48:02;3.38;;;1.90;;
57842;SDS011;43673;51.058;3.734;2022-10-16T12:50:44;6.85;;;2.55;;
57842;SDS011;43673;51.058;3.734;2022-10-16T12:53:18;6.03;;;2.20;;
57842;SDS011;43673;51.058;3.734;2022-10-16T12:56:05;5.57;;;1.90;;
57842;SDS011;43673;51.058;3.734;2022-10-16T13:10:19;6.95;;;2.05;;
57842;SDS011;43673;51.058;3.734;2022-10-16T13:18:19;6.38;;;2.33;;
57842;SDS011;43673;51.058;3.734;2022-10-16T13:24:22;6.50;;;2.20;;
57842;SDS011;43673;51.058;3.734;2022-10-16T13:27:01;7.68;;;2.30;;
57842;SDS011;43673;51.058;3.734;2022-10-16T13:29:52;4.53;;;2.05;;
57842;SDS011;43673;51.058;3.734;2022-10-16T13:32:25;7.43;;;2.20;;
57842;SDS011;43673;51.058;3.734;2022-10-16T13:34:52;4.75;;;1.98;;
57842;SDS011;43673;51.058;3.734;2022-10-16T13:37:19;4.13;;;1.92;;
57842;SDS011;43673;51.058;3.734;2022-10-16T13:39:46;5.10;;;2.05;;
57842;SDS011;43673;51.058;3.734;2022-10-16T13:42:23;3.00;;;2.15;;
57842;SDS011;43673;51.058;3.734;2022-10-16T13:44:52;4.22;;;1.38;;
57842;SDS011;43673;51.058;3.734;2022-10-16T13:47:20;5.13;;;1.85;;
57842;SDS011;43673;51.058;3.734;2022-10-16T13:49:58;3.03;;;1.65;;
57842;SDS011;43673;51.058;3.734;2022-10-16T13:52:44;2.92;;;1.48;;
57842;SDS011;43673;51.058;3.734;2022-10-16T13:55:11;5.53;;;1.95;;
57842;SDS011;43673;51.058;3.734;2022-10-16T13:57:38;4.10;;;1.52;;
57842;SDS011;43673;51.058;3.734;2022-10-16T14:00:26;2.42;;;1.42;;
57842;SDS011;43673;51.058;3.734;2022-10-16T14:03:04;3.38;;;1.60;;
57842;SDS011;43673;51.058;3.734;2022-10-16T14:05:31;2.10;;;1.55;;
57842;SDS011;43673;51.058;3.734;2022-10-16T14:07:58;3.60;;;1.83;;
57842;SDS011;43673;51.058;3.734;2022-10-16T14:10:28;6.05;;;2.15;;
57842;SDS011;43673;51.058;3.734;2022-10-16T14:13:03;2.90;;;1.70;;
57842;SDS011;43673;51.058;3.734;2022-10-16T14:15:31;3.28;;;1.92;;
57842;SDS011;43673;51.058;3.734;2022-10-16T14:17:59;7.43;;;1.90;;
57842;SDS011;43673;51.058;3.734;2022-10-16T14:20:26;5.55;;;2.20;;
57842;SDS011;43673;51.058;3.734;2022-10-16T14:22:59;12.88;;;3.45;;
57842;SDS011;43673;51.058;3.734;2022-10-16T14:25:30;5.88;;;1.60;;
57842;SDS011;43673;51.058;3.734;2022-10-16T14:28:02;6.18;;;1.83;;
57842;SDS011;43673;51.058;3.734;2022-10-16T14:30:30;6.03;;;2.15;;
57842;SDS011;43673;51.058;3.734;2022-10-16T14:32:59;4.72;;;1.60;;
57842;SDS011;43673;51.058;3.734;2022-10-16T14:38:00;2.97;;;1.50;;
57842;SDS011;43673;51.058;3.734;2022-10-16T14:40:28;4.28;;;1.85;;
57842;SDS011;43673;51.058;3.734;2022-10-16T14:43:03;4.57;;;1.70;;
57842;SDS011;43673;51.058;3.734;2022-10-16T14:45:31;2.30;;;1.60;;
57842;SDS011;43673;51.058;3.734;2022-10-16T14:48:04;3.90;;;1.50;;
57842;SDS011;43673;51.058;3.734;2022-10-16T14:50:40;2.35;;;1.60;;
57842;SDS011;43673;51.058;3.734;2022-10-16T14:53:12;6.43;;;1.83;;
57842;SDS011;43673;51.058;3.734;2022-10-16T14:55:38;2.78;;;1.70;;
57842;SDS011;43673;51.058;3.734;2022-10-16T14:58:05;3.45;;;1.50;;
57842;SDS011;43673;51.058;3.734;2022-10-16T15:00:36;2.47;;;1.48;;
57842;SDS011;43673;51.058;3.734;2022-10-16T15:03:02;3.58;;;1.42;;
57842;SDS011;43673;51.058;3.734;2022-10-16T15:05:28;4.03;;;1.42;;
57842;SDS011;43673;51.058;3.734;2022-10-16T15:07:54;2.75;;;1.40;;
57842;SDS011;43673;51.058;3.734;2022-10-16T15:10:23;5.05;;;1.58;;
57842;SDS011;43673;51.058;3.734;2022-10-16T15:12:50;1.75;;;1.50;;
57842;SDS011;43673;51.058;3.734;2022-10-16T15:17:50;3.47;;;1.85;;
57842;SDS011;43673;51.058;3.734;2022-10-16T15:20:21;6.65;;;1.40;;
57842;SDS011;43673;51.058;3.734;2022-10-16T15:22:49;4.65;;;2.03;;
57842;SDS011;43673;51.058;3.734;2022-10-16T15:28:07;3.05;;;1.50;;
57842;SDS011;43673;51.058;3.734;2022-10-16T15:30:34;12.73;;;2.38;;
57842;SDS011;43673;51.058;3.734;2022-10-16T15:33:00;5.80;;;1.92;;
57842;SDS011;43673;51.058;3.734;2022-10-16T15:35:27;3.42;;;1.80;;
57842;SDS011;43673;51.058;3.734;2022-10-16T15:37:52;6.57;;;2.20;;
57842;SDS011;43673;51.058;3.734;2022-10-16T15:40:19;2.33;;;1.50;;
57842;SDS011;43673;51.058;3.734;2022-10-16T15:42:45;4.93;;;2.00;;
57842;SDS011;43673;51.058;3.734;2022-10-16T15:45:11;2.40;;;2.03;;
57842;SDS011;43673;51.058;3.734;2022-10-16T15:47:38;4.38;;;2.20;;
57842;SDS011;43673;51.058;3.734;2022-10-16T15:50:05;4.47;;;2.30;;
57842;SDS011;43673;51.058;3.734;2022-10-16T15:52:31;4.55;;;2.20;;
57842;SDS011;43673;51.058;3.734;2022-10-16T15:54:57;7.63;;;3.03;;
57842;SDS011;43673;51.058;3.734;2022-10-16T15:57:24;15.98;;;3.00;;
57842;SDS011;43673;51.058;3.734;2022-10-16T15:59:52;5.82;;;4.63;;
57842;SDS011;43673;51.058;3.734;2022-10-16T16:02:18;5.05;;;2.83;;
57842;SDS011;43673;51.058;3.734;2022-10-16T16:04:45;6.85;;;2.75;;
57842;SDS011;43673;51.058;3.734;2022-10-16T16:07:10;5.57;;;3.42;;
57842;SDS011;43673;51.058;3.734;2022-10-16T16:09:36;5.90;;;2.80;;
57842;SDS011;43673;51.058;3.734;2022-10-16T16:12:05;5.88;;;2.92;;
57842;SDS011;43673;51.058;3.734;2022-10-16T16:14:31;6.88;;;3.05;;
57842;SDS011;43673;51.058;3.734;2022-10-16T16:16:57;6.50;;;2.60;;
57842;SDS011;43673;51.058;3.734;2022-10-16T16:19:24;8.35;;;2.97;;
57842;SDS011;43673;51.058;3.734;2022-10-16T16:21:50;7.95;;;3.42;;
57842;SDS011;43673;51.058;3.734;2022-10-16T16:24:16;9.40;;;2.58;;
57842;SDS011;43673;51.058;3.734;2022-10-16T16:26:42;5.65;;;3.40;;
57842;SDS011;43673;51.058;3.734;2022-10-16T16:29:12;5.38;;;3.25;;
57842;SDS011;43673;51.058;3.734;2022-10-16T16:31:39;4.88;;;3.30;;
57842;SDS011;43673;51.058;3.734;2022-10-16T16:34:06;7.68;;;3.33;;
57842;SDS011;43673;51.058;3.734;2022-10-16T16:36:33;8.35;;;3.50;;
57842;SDS011;43673;51.058;3.734;2022-10-16T16:38:59;6.20;;;3.25;;
57842;SDS011;43673;51.058;3.734;2022-10-16T16:41:26;9.43;;;3.63;;
57842;SDS011;43673;51.058;3.734;2022-10-16T16:43:53;4.60;;;3.67;;
57842;SDS011;43673;51.058;3.734;2022-10-16T16:46:20;5.57;;;3.60;;
57842;SDS011;43673;51.058;3.734;2022-10-16T16:48:46;8.43;;;3.88;;
57842;SDS011;43673;51.058;3.734;2022-10-16T16:51:15;7.28;;;4.13;;
57842;SDS011;43673;51.058;3.734;2022-10-16T16:53:46;7.60;;;3.92;;
57842;SDS011;43673;51.058;3.734;2022-10-16T16:56:15;6.78;;;5.07;;
57842;SDS011;43673;51.058;3.734;2022-10-16T16:58:44;10.25;;;5.20;;
57842;SDS011;43673;51.058;3.734;2022-10-16T17:01:11;7.60;;;4.65;;
57842;SDS011;43673;51.058;3.734;2022-10-16T17:03:37;9.60;;;4.82;;
57842;SDS011;43673;51.058;3.734;2022-10-16T17:08:30;7.75;;;5.45;;
57842;SDS011;43673;51.058;3.734;2022-10-16T17:10:56;7.68;;;4.93;;
57842;SDS011;43673;51.058;3.734;2022-10-16T17:13:24;6.32;;;4.30;;
57842;SDS011;43673;51.058;3.734;2022-10-16T17:15:50;7.57;;;5.55;;
57842;SDS011;43673;51.058;3.734;2022-10-16T17:18:18;10.32;;;4.93;;
57842;SDS011;43673;51.058;3.734;2022-10-16T17:20:44;9.73;;;4.88;;
57842;SDS011;43673;51.058;3.734;2022-10-16T17:23:10;9.85;;;4.68;;
57842;SDS011;43673;51.058;3.734;2022-10-16T17:25:37;9.98;;;5.80;;
57842;SDS011;43673;51.058;3.734;2022-10-16T17:28:03;7.55;;;5.82;;
57842;SDS011;43673;51.058;3.734;2022-10-16T17:30:31;8.20;;;5.65;;
57842;SDS011;43673;51.058;3.734;2022-10-16T17:32:59;10.80;;;6.25;;
57842;SDS011;43673;51.058;3.734;2022-10-16T17:35:25;12.05;;;6.20;;
57842;SDS011;43673;51.058;3.734;2022-10-16T17:37:51;10.98;;;7.00;;
57842;SDS011;43673;51.058;3.734;2022-10-16T17:40:19;11.55;;;5.78;;
57842;SDS011;43673;51.058;3.734;2022-10-16T17:42:46;11.07;;;6.78;;
57842;SDS011;43673;51.058;3.734;2022-10-16T17:45:12;10.80;;;6.25;;
57842;SDS011;43673;51.058;3.734;2022-10-16T17:47:38;13.38;;;5.53;;
57842;SDS011;43673;51.058;3.734;2022-10-16T17:50:06;10.73;;;6.03;;
57842;SDS011;43673;51.058;3.734;2022-10-16T17:52:32;6.95;;;5.30;;
57842;SDS011;43673;51.058;3.734;2022-10-16T17:54:58;11.45;;;6.65;;
57842;SDS011;43673;51.058;3.734;2022-10-16T17:57:25;9.15;;;6.15;;
57842;SDS011;43673;51.058;3.734;2022-10-16T17:59:53;11.20;;;7.10;;
57842;SDS011;43673;51.058;3.734;2022-10-16T18:02:19;12.05;;;6.15;;
57842;SDS011;43673;51.058;3.734;2022-10-16T18:04:45;13.75;;;6.40;;
57842;SDS011;43673;51.058;3.734;2022-10-16T18:07:11;10.30;;;6.00;;
57842;SDS011;43673;51.058;3.734;2022-10-16T18:09:37;16.67;;;7.05;;
57842;SDS011;43673;51.058;3.734;2022-10-16T18:12:03;10.82;;;6.53;;
57842;SDS011;43673;51.058;3.734;2022-10-16T18:14:29;14.75;;;7.88;;
57842;SDS011;43673;51.058;3.734;2022-10-16T18:16:56;10.48;;;7.88;;
57842;SDS011;43673;51.058;3.734;2022-10-16T18:19:23;12.85;;;7.82;;
57842;SDS011;43673;51.058;3.734;2022-10-16T18:21:50;15.55;;;8.85;;
57842;SDS011;43673;51.058;3.734;2022-10-16T18:24:17;11.23;;;8.40;;
57842;SDS011;43673;51.058;3.734;2022-10-16T18:26:43;14.68;;;9.13;;
57842;SDS011;43673;51.058;3.734;2022-10-16T18:29:11;19.98;;;9.00;;
57842;SDS011;43673;51.058;3.734;2022-10-16T18:31:37;12.00;;;8.50;;
57842;SDS011;43673;51.058;3.734;2022-10-16T18:34:03;11.43;;;7.53;;
57842;SDS011;43673;51.058;3.734;2022-10-16T18:36:30;16.85;;;8.13;;
57842;SDS011;43673;51.058;3.734;2022-10-16T18:38:58;13.40;;;7.65;;
57842;SDS011;43673;51.058;3.734;2022-10-16T18:41:25;9.63;;;6.90;;
57842;SDS011;43673;51.058;3.734;2022-10-16T18:43:51;10.40;;;8.30;;
57842;SDS011;43673;51.058;3.734;2022-10-16T18:46:18;8.75;;;7.68;;
57842;SDS011;43673;51.058;3.734;2022-10-16T18:48:46;11.48;;;7.60;;
57842;SDS011;43673;51.058;3.734;2022-10-16T18:53:48;12.02;;;7.43;;
57842;SDS011;43673;51.058;3.734;2022-10-16T18:56:18;11.00;;;7.63;;
57842;SDS011;43673;51.058;3.734;2022-10-16T18:58:47;12.20;;;7.22;;
57842;SDS011;43673;51.058;3.734;2022-10-16T19:01:20;10.52;;;7.20;;
57842;SDS011;43673;51.058;3.734;2022-10-16T19:03:48;11.38;;;7.85;;
57842;SDS011;43673;51.058;3.734;2022-10-16T19:06:18;10.15;;;7.65;;
57842;SDS011;43673;51.058;3.734;2022-10-16T19:08:44;11.35;;;7.80;;
57842;SDS011;43673;51.058;3.734;2022-10-16T19:11:14;12.30;;;8.80;;
57842;SDS011;43673;51.058;3.734;2022-10-16T19:13:44;12.93;;;8.40;;
57842;SDS011;43673;51.058;3.734;2022-10-16T19:16:22;13.55;;;8.75;;
57842;SDS011;43673;51.058;3.734;2022-10-16T19:18:51;12.10;;;8.32;;
57842;SDS011;43673;51.058;3.734;2022-10-16T19:21:18;14.52;;;8.88;;
57842;SDS011;43673;51.058;3.734;2022-10-16T19:23:44;14.93;;;8.85;;
57842;SDS011;43673;51.058;3.734;2022-10-16T19:26:11;13.85;;;8.52;;
57842;SDS011;43673;51.058;3.734;2022-10-16T19:28:39;9.82;;;8.75;;
57842;SDS011;43673;51.058;3.734;2022-10-16T19:31:08;13.65;;;9.80;;
57842;SDS011;43673;51.058;3.734;2022-10-16T19:33:36;11.13;;;8.57;;
57842;SDS011;43673;51.058;3.734;2022-10-16T19:36:07;12.88;;;8.82;;
57842;SDS011;43673;51.058;3.734;2022-10-16T19:38:39;14.10;;;9.45;;
57842;SDS011;43673;51.058;3.734;2022-10-16T19:41:09;11.95;;;8.60;;
57842;SDS011;43673;51.058;3.734;2022-10-16T19:43:36;14.65;;;9.48;;
57842;SDS011;43673;51.058;3.734;2022-10-16T19:46:03;12.48;;;9.10;;
57842;SDS011;43673;51.058;3.734;2022-10-16T19:48:30;19.17;;;10.13;;
57842;SDS011;43673;51.058;3.734;2022-10-16T19:50:56;14.23;;;9.43;;
57842;SDS011;43673;51.058;3.734;2022-10-16T19:53:22;14.05;;;9.63;;
57842;SDS011;43673;51.058;3.734;2022-10-16T19:55:48;13.00;;;9.60;;
57842;SDS011;43673;51.058;3.734;2022-10-16T19:58:14;12.32;;;9.45;;
57842;SDS011;43673;51.058;3.734;2022-10-16T20:00:40;17.00;;;10.43;;
57842;SDS011;43673;51.058;3.734;2022-10-16T20:03:06;15.27;;;10.57;;
57842;SDS011;43673;51.058;3.734;2022-10-16T20:05:32;13.38;;;9.48;;
57842;SDS011;43673;51.058;3.734;2022-10-16T20:07:58;10.88;;;9.65;;
57842;SDS011;43673;51.058;3.734;2022-10-16T20:10:24;13.90;;;9.80;;
57842;SDS011;43673;51.058;3.734;2022-10-16T20:12:50;13.85;;;9.65;;
57842;SDS011;43673;51.058;3.734;2022-10-16T20:15:17;12.45;;;10.27;;
57842;SDS011;43673;51.058;3.734;2022-10-16T20:17:42;12.68;;;10.13;;
57842;SDS011;43673;51.058;3.734;2022-10-16T20:20:08;12.88;;;10.82;;
57842;SDS011;43673;51.058;3.734;2022-10-16T20:22:34;14.65;;;10.85;;
57842;SDS011;43673;51.058;3.734;2022-10-16T20:25:00;13.65;;;10.23;;
57842;SDS011;43673;51.058;3.734;2022-10-16T20:27:26;16.15;;;10.10;;
57842;SDS011;43673;51.058;3.734;2022-10-16T20:29:53;13.35;;;11.57;;
57842;SDS011;43673;51.058;3.734;2022-10-16T20:32:19;17.10;;;10.77;;
57842;SDS011;43673;51.058;3.734;2022-10-16T20:34:45;19.60;;;11.35;;
57842;SDS011;43673;51.058;3.734;2022-10-16T20:37:14;18.80;;;12.20;;